FCO weather

Leonardo da Vinci–Fiumicino Airport
Rome, Lazio, Italy

Public forecast

Using degrees Celsius for public forecast. Weather courtesy of forecast.io.

METAR (pilot weather report)

Retrieved 2017/03/24 21:20 UTC (27 minutes ago):

LIRF 242120Z 35004KT 8000 NSC 09/08 Q1021 NOSIG

TAF (pilot weather forecast)

Retrieved 2017/03/24 18:00 UTC (4 hours ago):

TAF LIRF 241700Z 2418/2524 08006KT 9999 FEW050 BECMG 2508/2510 20012KT TEMPO 2516/2520 RA